PWSweather.com
Personal Weather Stations
Station Observations
JOE4SPEED
Jupiter, Fl, Jupiter, FL 33458

Jupiter, FlJupiter, FL 33458

Lat: 26.9373, Lon: -80.1101

Elevation: 12

Station Type: Davis VP 2

http://www.joe4speed.com/wxindex.php

Latest ConditionsUpdated 12:20:21 PM EDT Saturday, May 30, 2015
Currently Today's Max Today's Min Today's Average
Temperature 85.4°F29.7°C 85.5°F29.7°C 75.2°F24.0°C 79.2°F26.2°C
Dew Point 73.2°F22.9°C 74.1°F23.4°C 68.5°F20.3°C 70.3°F21.3°C
Winds 1.1 mph ESE1.8 kmh ESE 6.6 mph SSE10.6 kmh SSE - 1.3 mph 2.1 kmh
Wind Gusts 9.0 mph14.5 kmh 11.0 mph17.7 kmh - -
Humidity 67% 82% 67% 75%
Pressure 30.07 in1018.3 mb 30.07 in1018.3 mb 30.01 in1016.3 mb -
Hour Temp Dew Point Humidity Winds Wind Gusts Pressure Precip Precip Rate Daily Precip Total
12:20 PM 85.4°F29.7°C 73.2°F22.9°C 67% 1.1 mph ESE1.8 kmh ESE 9.0 mph14.5 kmh 30.07 in1018.3 mb - 0.00 in0.0 mm 0.00 in0.0 mm
12:10 PM 85.4°F29.7°C 73.6°F23.1°C 68% 2.3 mph SE3.7 kmh SE 7.0 mph11.3 kmh 30.06 in1017.9 mb - 0.00 in0.0 mm 0.00 in0.0 mm
12:00 PM 84.9°F29.4°C 72.8°F22.7°C 67% 0.9 mph SE1.4 kmh SE 2.0 mph3.2 kmh 30.07 in1018.3 mb - 0.00 in0.0 mm 0.00 in0.0 mm
11:50 AM 85.0°F29.4°C 74.1°F23.4°C 70% 4.4 mph SE7.1 kmh SE 7.0 mph11.3 kmh 30.07 in1018.3 mb - 0.00 in0.0 mm 0.00 in0.0 mm
11:40 AM 84.9°F29.4°C 73.6°F23.1°C 69% 2.2 mph SE3.5 kmh SE 5.0 mph8.0 kmh 30.07 in1018.3 mb - 0.00 in0.0 mm 0.00 in0.0 mm
11:30 AM 85.0°F29.4°C 73.2°F22.9°C 68% 1.0 mph ESE1.6 kmh ESE -- 30.07 in1018.3 mb - 0.00 in0.0 mm 0.00 in0.0 mm
11:20 AM 84.6°F29.2°C 72.4°F22.4°C 67% 1.2 mph ENE1.9 kmh ENE -- 30.07 in1018.3 mb - 0.00 in0.0 mm 0.00 in0.0 mm
11:10 AM 84.2°F29.0°C 72.9°F22.7°C 69% 5.5 mph E8.9 kmh E 7.0 mph11.3 kmh 30.07 in1018.3 mb - 0.00 in0.0 mm 0.00 in0.0 mm
11:00 AM 85.2°F29.6°C 73.0°F22.8°C 67% 6.6 mph SSE10.6 kmh SSE 11.0 mph17.7 kmh 30.07 in1018.3 mb - 0.00 in0.0 mm 0.00 in0.0 mm
10:50 AM 85.5°F29.7°C 73.7°F23.2°C 68% 1.4 mph SE2.3 kmh SE 5.0 mph8.0 kmh 30.07 in1018.3 mb - 0.00 in0.0 mm 0.00 in0.0 mm
10:40 AM 85.1°F29.5°C 72.9°F22.7°C 67% 1.7 mph SE2.7 kmh SE 8.0 mph12.9 kmh 30.07 in1018.3 mb - 0.00 in0.0 mm 0.00 in0.0 mm
10:30 AM 84.5°F29.2°C 73.3°F22.9°C 69% 3.5 mph SE5.6 kmh SE 8.0 mph12.9 kmh 30.07 in1018.3 mb - 0.00 in0.0 mm 0.00 in0.0 mm
10:20 AM 83.9°F28.8°C 73.1°F22.8°C 70% 4.6 mph E7.4 kmh E 9.0 mph14.5 kmh 30.06 in1017.9 mb - 0.00 in0.0 mm 0.00 in0.0 mm
10:10 AM 84.0°F28.9°C 72.3°F22.4°C 68% 2.0 mph SE3.2 kmh SE 5.0 mph8.0 kmh 30.06 in1017.9 mb - 0.00 in0.0 mm 0.00 in0.0 mm
10:00 AM 84.9°F29.4°C 72.7°F22.6°C 67% Calm Calm -- 30.06 in1017.9 mb - 0.00 in0.0 mm 0.00 in0.0 mm
09:50 AM 84.7°F29.3°C 72.6°F22.6°C 67% Calm Calm 8.0 mph12.9 kmh 30.06 in1017.9 mb - 0.00 in0.0 mm 0.00 in0.0 mm
09:30 AM 82.9°F28.3°C 73.0°F22.8°C 72% 3.0 mph ESE4.8 kmh ESE 6.0 mph9.7 kmh 30.06 in1017.9 mb - 0.00 in0.0 mm 0.00 in0.0 mm
05:30 AM 75.2°F24.0°C 69.3°F20.7°C 82% 0.2 mph ESE0.3 kmh ESE 1.0 mph1.6 kmh 30.02 in1016.6 mb - 0.00 in0.0 mm 0.00 in0.0 mm
05:20 AM 75.2°F24.0°C 69.3°F20.7°C 82% Calm Calm -- 30.02 in1016.6 mb - 0.00 in0.0 mm 0.00 in0.0 mm
05:10 AM 75.2°F24.0°C 69.0°F20.6°C 81% 0.2 mph ESE0.3 kmh ESE 1.0 mph1.6 kmh 30.02 in1016.6 mb - 0.00 in0.0 mm 0.00 in0.0 mm
05:00 AM 75.3°F24.1°C 69.1°F20.6°C 81% Calm Calm -- 30.02 in1016.6 mb - 0.00 in0.0 mm 0.00 in0.0 mm
04:50 AM 75.3°F24.1°C 68.7°F20.4°C 80% 0.1 mph ESE0.2 kmh ESE 1.0 mph1.6 kmh 30.02 in1016.6 mb - 0.00 in0.0 mm 0.00 in0.0 mm
04:40 AM 75.3°F24.1°C 68.7°F20.4°C 80% 0.1 mph ESE0.2 kmh ESE 1.0 mph1.6 kmh 30.02 in1016.6 mb - 0.00 in0.0 mm 0.00 in0.0 mm
04:30 AM 75.4°F24.1°C 68.8°F20.4°C 80% 0.1 mph ESE0.2 kmh ESE 1.0 mph1.6 kmh 30.02 in1016.6 mb - 0.00 in0.0 mm 0.00 in0.0 mm
04:20 AM 75.6°F24.2°C 69.0°F20.6°C 80% 0.1 mph ESE0.2 kmh ESE 1.0 mph1.6 kmh 30.02 in1016.6 mb - 0.00 in0.0 mm 0.00 in0.0 mm
04:10 AM 75.6°F24.2°C 68.6°F20.3°C 79% Calm Calm 1.0 mph1.6 kmh 30.01 in1016.3 mb - 0.00 in0.0 mm 0.00 in0.0 mm
04:00 AM 75.6°F24.2°C 68.6°F20.3°C 79% 0.2 mph E0.3 kmh E 1.0 mph1.6 kmh 30.02 in1016.6 mb - 0.00 in0.0 mm 0.00 in0.0 mm
03:50 AM 75.7°F24.3°C 68.7°F20.4°C 79% 0.1 mph ESE0.2 kmh ESE 1.0 mph1.6 kmh 30.02 in1016.6 mb - 0.00 in0.0 mm 0.00 in0.0 mm
03:40 AM 75.9°F24.4°C 68.5°F20.3°C 78% Calm Calm 1.0 mph1.6 kmh 30.01 in1016.3 mb - 0.00 in0.0 mm 0.00 in0.0 mm
03:30 AM 76.1°F24.5°C 68.7°F20.4°C 78% Calm Calm 1.0 mph1.6 kmh 30.02 in1016.6 mb - 0.00 in0.0 mm 0.00 in0.0 mm
03:20 AM 76.3°F24.6°C 68.9°F20.5°C 78% 0.1 mph ESE0.2 kmh ESE 1.0 mph1.6 kmh 30.02 in1016.6 mb - 0.00 in0.0 mm 0.00 in0.0 mm
03:10 AM 76.4°F24.7°C 68.7°F20.4°C 77% 0.3 mph ESE0.5 kmh ESE 1.0 mph1.6 kmh 30.02 in1016.6 mb - 0.00 in0.0 mm 0.00 in0.0 mm
03:00 AM 76.5°F24.7°C 69.1°F20.6°C 78% 0.8 mph SE1.3 kmh SE 3.0 mph4.8 kmh 30.02 in1016.6 mb - 0.00 in0.0 mm 0.00 in0.0 mm
02:50 AM 76.6°F24.8°C 68.8°F20.4°C 77% 0.5 mph ESE0.8 kmh ESE 2.0 mph3.2 kmh 30.02 in1016.6 mb - 0.00 in0.0 mm 0.00 in0.0 mm
02:40 AM 76.7°F24.8°C 68.9°F20.5°C 77% 0.5 mph ESE0.8 kmh ESE 2.0 mph3.2 kmh 30.03 in1016.9 mb - 0.00 in0.0 mm 0.00 in0.0 mm
02:30 AM 76.8°F24.9°C 69.0°F20.6°C 77% 0.2 mph ESE0.3 kmh ESE 2.0 mph3.2 kmh 30.03 in1016.9 mb - 0.00 in0.0 mm 0.00 in0.0 mm
02:20 AM 76.9°F24.9°C 69.1°F20.6°C 77% 0.8 mph SE1.3 kmh SE 2.0 mph3.2 kmh 30.03 in1016.9 mb - 0.00 in0.0 mm 0.00 in0.0 mm
02:10 AM 77.0°F25.0°C 69.2°F20.7°C 77% 1.3 mph ESE2.1 kmh ESE 6.0 mph9.7 kmh 30.03 in1016.9 mb - 0.00 in0.0 mm 0.00 in0.0 mm
02:00 AM 77.1°F25.1°C 69.3°F20.7°C 77% 2.2 mph ESE3.5 kmh ESE 3.0 mph4.8 kmh 30.03 in1016.9 mb - 0.00 in0.0 mm 0.00 in0.0 mm
01:50 AM 77.0°F25.0°C 69.2°F20.7°C 77% 0.3 mph E0.5 kmh E 3.0 mph4.8 kmh 30.04 in1017.3 mb - 0.00 in0.0 mm 0.00 in0.0 mm
01:40 AM 77.0°F25.0°C 69.2°F20.7°C 77% 0.6 mph SE1.0 kmh SE 1.0 mph1.6 kmh 30.04 in1017.3 mb - 0.00 in0.0 mm 0.00 in0.0 mm
01:30 AM 77.0°F25.0°C 68.9°F20.5°C 76% 0.6 mph SE1.0 kmh SE 1.0 mph1.6 kmh 30.04 in1017.3 mb - 0.00 in0.0 mm 0.00 in0.0 mm
01:20 AM 77.0°F25.0°C 68.9°F20.5°C 76% 1.3 mph ESE2.1 kmh ESE 3.0 mph4.8 kmh 30.05 in1017.6 mb - 0.00 in0.0 mm 0.00 in0.0 mm
01:10 AM 77.1°F25.1°C 68.9°F20.5°C 76% 2.3 mph ESE3.7 kmh ESE 5.0 mph8.0 kmh 30.05 in1017.6 mb - 0.00 in0.0 mm 0.00 in0.0 mm
01:00 AM 77.1°F25.1°C 68.9°F20.5°C 76% 2.5 mph E4.0 kmh E 5.0 mph8.0 kmh 30.05 in1017.6 mb - 0.00 in0.0 mm 0.00 in0.0 mm
12:50 AM 77.1°F25.1°C 68.9°F20.5°C 76% 0.9 mph SSE1.4 kmh SSE 2.0 mph3.2 kmh 30.05 in1017.6 mb - 0.00 in0.0 mm 0.00 in0.0 mm
12:40 AM 77.1°F25.1°C 68.9°F20.5°C 76% 2.0 mph E3.2 kmh E 5.0 mph8.0 kmh 30.06 in1017.9 mb - 0.00 in0.0 mm 0.00 in0.0 mm
12:30 AM 77.3°F25.2°C 69.1°F20.6°C 76% 0.9 mph SE1.4 kmh SE 3.0 mph4.8 kmh 30.06 in1017.9 mb - 0.00 in0.0 mm 0.00 in0.0 mm
12:20 AM 77.4°F25.2°C 69.2°F20.7°C 76% 2.6 mph E4.2 kmh E 5.0 mph8.0 kmh 30.06 in1017.9 mb - 0.00 in0.0 mm 0.00 in0.0 mm
12:10 AM 77.5°F25.3°C 69.7°F20.9°C 77% 2.0 mph ESE3.2 kmh ESE 3.0 mph4.8 kmh 30.05 in1017.6 mb - 0.00 in0.0 mm 0.00 in0.0 mm
12:00 AM 77.5°F25.3°C 69.4°F20.8°C 76% 2.9 mph E4.7 kmh E 5.0 mph8.0 kmh 30.06 in1017.9 mb - 0.00 in0.0 mm 0.00 in0.0 mm